sensor_id;sensor_type;location;lat;lon;timestamp;temperature;humidity
15386;DHT22;7791;47.246;9.648;2024-02-23T00:01:14;9.10;99.90
15386;DHT22;7791;47.246;9.648;2024-02-23T00:04:00;9.30;99.90
15386;DHT22;7791;47.246;9.648;2024-02-23T00:06:44;9.40;99.90
15386;DHT22;7791;47.246;9.648;2024-02-23T00:09:14;9.50;99.90
15386;DHT22;7791;47.246;9.648;2024-02-23T00:11:50;9.50;99.90
15386;DHT22;7791;47.246;9.648;2024-02-23T00:14:32;9.50;99.90
15386;DHT22;7791;47.246;9.648;2024-02-23T00:17:06;9.60;99.90
15386;DHT22;7791;47.246;9.648;2024-02-23T00:19:45;9.50;99.90
15386;DHT22;7791;47.246;9.648;2024-02-23T00:22:20;9.40;99.90
15386;DHT22;7791;47.246;9.648;2024-02-23T00:24:53;9.30;99.90
15386;DHT22;7791;47.246;9.648;2024-02-23T00:27:22;9.30;99.90
15386;DHT22;7791;47.246;9.648;2024-02-23T00:35:28;9.50;99.90
15386;DHT22;7791;47.246;9.648;2024-02-23T00:37:58;9.70;99.90
15386;DHT22;7791;47.246;9.648;2024-02-23T00:40:31;9.70;99.90
15386;DHT22;7791;47.246;9.648;2024-02-23T00:43:18;9.80;99.90
15386;DHT22;7791;47.246;9.648;2024-02-23T00:46:03;9.80;99.90
15386;DHT22;7791;47.246;9.648;2024-02-23T00:48:36;9.90;99.90
15386;DHT22;7791;47.246;9.648;2024-02-23T00:51:15;9.90;99.90
15386;DHT22;7791;47.246;9.648;2024-02-23T00:53:48;9.90;99.90
15386;DHT22;7791;47.246;9.648;2024-02-23T00:56:32;9.90;99.90
15386;DHT22;7791;47.246;9.648;2024-02-23T00:59:23;9.90;99.90
15386;DHT22;7791;47.246;9.648;2024-02-23T01:02:05;9.90;99.90
15386;DHT22;7791;47.246;9.648;2024-02-23T01:04:37;10.00;99.90
15386;DHT22;7791;47.246;9.648;2024-02-23T01:07:21;9.90;99.90
15386;DHT22;7791;47.246;9.648;2024-02-23T01:10:00;9.90;99.90
15386;DHT22;7791;47.246;9.648;2024-02-23T01:12:35;9.90;99.90
15386;DHT22;7791;47.246;9.648;2024-02-23T01:15:06;9.80;99.90
15386;DHT22;7791;47.246;9.648;2024-02-23T01:20:33;9.80;99.90
15386;DHT22;7791;47.246;9.648;2024-02-23T01:23:06;9.90;99.90
15386;DHT22;7791;47.246;9.648;2024-02-23T01:28:33;10.00;99.90
15386;DHT22;7791;47.246;9.648;2024-02-23T01:31:13;10.00;99.90
15386;DHT22;7791;47.246;9.648;2024-02-23T01:33:52;9.60;99.90
15386;DHT22;7791;47.246;9.648;2024-02-23T01:36:35;9.50;99.90
15386;DHT22;7791;47.246;9.648;2024-02-23T01:42:02;9.50;99.90
15386;DHT22;7791;47.246;9.648;2024-02-23T01:44:27;9.50;99.90
15386;DHT22;7791;47.246;9.648;2024-02-23T01:46:54;9.50;99.90
15386;DHT22;7791;47.246;9.648;2024-02-23T01:49:20;9.40;99.90
15386;DHT22;7791;47.246;9.648;2024-02-23T01:51:46;9.40;99.90
15386;DHT22;7791;47.246;9.648;2024-02-23T01:54:14;9.20;99.90
15386;DHT22;7791;47.246;9.648;2024-02-23T01:56:40;9.20;99.90
15386;DHT22;7791;47.246;9.648;2024-02-23T01:59:06;9.10;99.90
15386;DHT22;7791;47.246;9.648;2024-02-23T02:01:34;9.00;99.90
15386;DHT22;7791;47.246;9.648;2024-02-23T02:04:00;9.00;99.90
15386;DHT22;7791;47.246;9.648;2024-02-23T02:06:26;9.10;99.90
15386;DHT22;7791;47.246;9.648;2024-02-23T02:08:52;9.00;99.90
15386;DHT22;7791;47.246;9.648;2024-02-23T02:11:20;9.00;99.90
15386;DHT22;7791;47.246;9.648;2024-02-23T02:13:46;9.00;99.90
15386;DHT22;7791;47.246;9.648;2024-02-23T02:16:12;8.90;99.90
15386;DHT22;7791;47.246;9.648;2024-02-23T02:18:38;8.90;99.90
15386;DHT22;7791;47.246;9.648;2024-02-23T02:21:04;8.90;99.90
15386;DHT22;7791;47.246;9.648;2024-02-23T02:23:29;8.80;99.90
15386;DHT22;7791;47.246;9.648;2024-02-23T02:25:56;8.80;99.90
15386;DHT22;7791;47.246;9.648;2024-02-23T02:28:24;8.80;99.90
15386;DHT22;7791;47.246;9.648;2024-02-23T02:30:51;8.80;99.90
15386;DHT22;7791;47.246;9.648;2024-02-23T02:33:17;8.60;99.90
15386;DHT22;7791;47.246;9.648;2024-02-23T02:35:42;8.60;99.90
15386;DHT22;7791;47.246;9.648;2024-02-23T02:38:08;8.60;99.90
15386;DHT22;7791;47.246;9.648;2024-02-23T02:40:35;8.60;99.90
15386;DHT22;7791;47.246;9.648;2024-02-23T02:43:01;8.60;99.90
15386;DHT22;7791;47.246;9.648;2024-02-23T02:45:29;8.60;99.90
15386;DHT22;7791;47.246;9.648;2024-02-23T02:47:54;8.50;99.90
15386;DHT22;7791;47.246;9.648;2024-02-23T02:50:20;8.40;99.90
15386;DHT22;7791;47.246;9.648;2024-02-23T02:52:46;8.40;99.90
15386;DHT22;7791;47.246;9.648;2024-02-23T02:55:12;8.40;99.90
15386;DHT22;7791;47.246;9.648;2024-02-23T02:57:38;8.30;99.90
15386;DHT22;7791;47.246;9.648;2024-02-23T03:00:05;8.10;99.90
15386;DHT22;7791;47.246;9.648;2024-02-23T03:02:32;8.10;99.90
15386;DHT22;7791;47.246;9.648;2024-02-23T03:04:58;8.10;99.90
15386;DHT22;7791;47.246;9.648;2024-02-23T03:07:24;8.00;99.90
15386;DHT22;7791;47.246;9.648;2024-02-23T03:09:51;7.90;99.90
15386;DHT22;7791;47.246;9.648;2024-02-23T03:12:18;7.80;99.90
15386;DHT22;7791;47.246;9.648;2024-02-23T03:14:44;7.70;99.90
15386;DHT22;7791;47.246;9.648;2024-02-23T03:17:11;7.40;99.90
15386;DHT22;7791;47.246;9.648;2024-02-23T03:19:39;7.30;99.90
15386;DHT22;7791;47.246;9.648;2024-02-23T03:22:05;7.10;99.90
15386;DHT22;7791;47.246;9.648;2024-02-23T03:24:31;7.00;99.90
15386;DHT22;7791;47.246;9.648;2024-02-23T03:26:57;6.80;99.90
15386;DHT22;7791;47.246;9.648;2024-02-23T03:29:23;6.80;99.90
15386;DHT22;7791;47.246;9.648;2024-02-23T03:31:48;6.80;99.90
15386;DHT22;7791;47.246;9.648;2024-02-23T03:34:14;6.80;99.90
15386;DHT22;7791;47.246;9.648;2024-02-23T03:36:41;6.60;99.90
15386;DHT22;7791;47.246;9.648;2024-02-23T03:39:07;6.50;99.90
15386;DHT22;7791;47.246;9.648;2024-02-23T03:41:33;6.40;99.90
15386;DHT22;7791;47.246;9.648;2024-02-23T03:43:58;6.30;99.90
15386;DHT22;7791;47.246;9.648;2024-02-23T03:46:24;6.30;99.90
15386;DHT22;7791;47.246;9.648;2024-02-23T03:48:50;6.40;99.90
15386;DHT22;7791;47.246;9.648;2024-02-23T03:51:16;6.40;99.90
15386;DHT22;7791;47.246;9.648;2024-02-23T03:53:44;6.50;99.90
15386;DHT22;7791;47.246;9.648;2024-02-23T03:56:10;6.40;99.90
15386;DHT22;7791;47.246;9.648;2024-02-23T03:58:35;6.50;99.90
15386;DHT22;7791;47.246;9.648;2024-02-23T04:01:01;6.40;99.90
15386;DHT22;7791;47.246;9.648;2024-02-23T04:03:27;6.40;99.90
15386;DHT22;7791;47.246;9.648;2024-02-23T04:05:52;6.50;99.90
15386;DHT22;7791;47.246;9.648;2024-02-23T04:08:18;6.40;99.90
15386;DHT22;7791;47.246;9.648;2024-02-23T04:10:45;6.40;99.90
15386;DHT22;7791;47.246;9.648;2024-02-23T04:13:11;6.40;99.90
15386;DHT22;7791;47.246;9.648;2024-02-23T04:15:36;6.40;99.90
15386;DHT22;7791;47.246;9.648;2024-02-23T04:18:02;6.40;99.90
15386;DHT22;7791;47.246;9.648;2024-02-23T04:20:28;6.40;99.90
15386;DHT22;7791;47.246;9.648;2024-02-23T04:22:54;6.40;99.90
15386;DHT22;7791;47.246;9.648;2024-02-23T04:25:20;6.40;99.90
15386;DHT22;7791;47.246;9.648;2024-02-23T04:27:47;6.40;99.90
15386;DHT22;7791;47.246;9.648;2024-02-23T04:30:13;6.40;99.90
15386;DHT22;7791;47.246;9.648;2024-02-23T04:32:39;6.30;99.90
15386;DHT22;7791;47.246;9.648;2024-02-23T04:35:05;6.30;99.90
15386;DHT22;7791;47.246;9.648;2024-02-23T04:37:31;6.20;99.90
15386;DHT22;7791;47.246;9.648;2024-02-23T04:39:57;6.20;99.90
15386;DHT22;7791;47.246;9.648;2024-02-23T04:42:23;6.20;99.90
15386;DHT22;7791;47.246;9.648;2024-02-23T04:44:50;6.20;99.90
15386;DHT22;7791;47.246;9.648;2024-02-23T04:47:15;6.20;99.90
15386;DHT22;7791;47.246;9.648;2024-02-23T04:49:41;6.20;99.90
15386;DHT22;7791;47.246;9.648;2024-02-23T04:52:07;6.20;99.90
15386;DHT22;7791;47.246;9.648;2024-02-23T04:54:33;6.10;99.90
15386;DHT22;7791;47.246;9.648;2024-02-23T04:56:59;6.10;99.90
15386;DHT22;7791;47.246;9.648;2024-02-23T04:59:25;6.10;99.90
15386;DHT22;7791;47.246;9.648;2024-02-23T05:01:52;6.10;99.90
15386;DHT22;7791;47.246;9.648;2024-02-23T05:04:17;6.00;99.90
15386;DHT22;7791;47.246;9.648;2024-02-23T05:06:43;6.10;99.90
15386;DHT22;7791;47.246;9.648;2024-02-23T05:09:09;6.10;99.90
15386;DHT22;7791;47.246;9.648;2024-02-23T05:11:35;6.10;99.90
15386;DHT22;7791;47.246;9.648;2024-02-23T05:14:12;6.20;99.90
15386;DHT22;7791;47.246;9.648;2024-02-23T05:16:38;6.10;99.90
15386;DHT22;7791;47.246;9.648;2024-02-23T05:19:05;6.00;99.90
15386;DHT22;7791;47.246;9.648;2024-02-23T05:21:31;6.00;99.90
15386;DHT22;7791;47.246;9.648;2024-02-23T05:23:57;6.10;99.90
15386;DHT22;7791;47.246;9.648;2024-02-23T05:26:23;6.10;99.90
15386;DHT22;7791;47.246;9.648;2024-02-23T05:28:50;6.10;99.90
15386;DHT22;7791;47.246;9.648;2024-02-23T05:31:16;6.10;99.90
15386;DHT22;7791;47.246;9.648;2024-02-23T05:33:42;6.10;99.90
15386;DHT22;7791;47.246;9.648;2024-02-23T05:36:10;6.10;99.90
15386;DHT22;7791;47.246;9.648;2024-02-23T05:38:36;6.00;99.90
15386;DHT22;7791;47.246;9.648;2024-02-23T05:41:02;6.00;99.90
15386;DHT22;7791;47.246;9.648;2024-02-23T05:43:28;6.00;99.90
15386;DHT22;7791;47.246;9.648;2024-02-23T05:55:29;5.90;99.90
15386;DHT22;7791;47.246;9.648;2024-02-23T05:57:59;5.90;99.90
15386;DHT22;7791;47.246;9.648;2024-02-23T06:00:34;5.70;99.90
15386;DHT22;7791;47.246;9.648;2024-02-23T06:03:14;5.60;99.90
15386;DHT22;7791;47.246;9.648;2024-02-23T06:05:55;5.60;99.90
15386;DHT22;7791;47.246;9.648;2024-02-23T06:08:25;5.60;99.90
15386;DHT22;7791;47.246;9.648;2024-02-23T06:14:10;5.30;99.90
15386;DHT22;7791;47.246;9.648;2024-02-23T06:16:45;5.30;99.90
15386;DHT22;7791;47.246;9.648;2024-02-23T06:19:16;5.20;99.90
15386;DHT22;7791;47.246;9.648;2024-02-23T06:22:07;5.00;99.90
15386;DHT22;7791;47.246;9.648;2024-02-23T06:27:31;4.90;99.90
15386;DHT22;7791;47.246;9.648;2024-02-23T06:30:13;4.90;99.90
15386;DHT22;7791;47.246;9.648;2024-02-23T06:32:38;4.90;99.90
15386;DHT22;7791;47.246;9.648;2024-02-23T06:35:10;5.00;99.90
15386;DHT22;7791;47.246;9.648;2024-02-23T06:37:43;5.00;99.90
15386;DHT22;7791;47.246;9.648;2024-02-23T06:40:28;5.10;99.90
15386;DHT22;7791;47.246;9.648;2024-02-23T06:43:09;5.10;99.90
15386;DHT22;7791;47.246;9.648;2024-02-23T06:45:38;5.10;99.90
15386;DHT22;7791;47.246;9.648;2024-02-23T06:48:18;5.20;99.90
15386;DHT22;7791;47.246;9.648;2024-02-23T06:50:47;5.00;99.90
15386;DHT22;7791;47.246;9.648;2024-02-23T06:53:37;4.90;99.90
15386;DHT22;7791;47.246;9.648;2024-02-23T06:56:10;4.70;99.90
15386;DHT22;7791;47.246;9.648;2024-02-23T06:58:55;4.50;99.90
15386;DHT22;7791;47.246;9.648;2024-02-23T07:01:34;4.60;99.90
15386;DHT22;7791;47.246;9.648;2024-02-23T07:04:18;4.50;99.90
15386;DHT22;7791;47.246;9.648;2024-02-23T07:06:51;4.50;99.90
15386;DHT22;7791;47.246;9.648;2024-02-23T07:09:24;4.40;99.90
15386;DHT22;7791;47.246;9.648;2024-02-23T07:11:57;4.50;99.90
15386;DHT22;7791;47.246;9.648;2024-02-23T07:14:53;4.40;99.90
15386;DHT22;7791;47.246;9.648;2024-02-23T07:17:21;4.40;99.90
15386;DHT22;7791;47.246;9.648;2024-02-23T07:19:55;4.60;99.90
15386;DHT22;7791;47.246;9.648;2024-02-23T07:22:31;4.60;99.90
15386;DHT22;7791;47.246;9.648;2024-02-23T07:25:15;4.60;99.90
15386;DHT22;7791;47.246;9.648;2024-02-23T07:27:52;4.70;99.90
15386;DHT22;7791;47.246;9.648;2024-02-23T07:30:41;4.80;99.90
15386;DHT22;7791;47.246;9.648;2024-02-23T07:33:13;4.90;99.90
15386;DHT22;7791;47.246;9.648;2024-02-23T07:38:39;5.00;99.90
15386;DHT22;7791;47.246;9.648;2024-02-23T07:41:27;4.90;99.90
15386;DHT22;7791;47.246;9.648;2024-02-23T07:44:03;4.90;99.90
15386;DHT22;7791;47.246;9.648;2024-02-23T07:46:44;5.00;99.90
15386;DHT22;7791;47.246;9.648;2024-02-23T07:49:19;5.10;99.90
15386;DHT22;7791;47.246;9.648;2024-02-23T07:52:00;5.20;99.90
15386;DHT22;7791;47.246;9.648;2024-02-23T07:54:45;5.20;99.90
15386;DHT22;7791;47.246;9.648;2024-02-23T07:57:20;5.30;99.90
15386;DHT22;7791;47.246;9.648;2024-02-23T07:59:50;5.20;99.90
15386;DHT22;7791;47.246;9.648;2024-02-23T08:02:29;5.10;99.90
15386;DHT22;7791;47.246;9.648;2024-02-23T08:05:01;5.10;99.90
15386;DHT22;7791;47.246;9.648;2024-02-23T08:07:32;5.20;99.90
15386;DHT22;7791;47.246;9.648;2024-02-23T08:10:01;5.30;99.90
15386;DHT22;7791;47.246;9.648;2024-02-23T08:12:33;5.30;99.90
15386;DHT22;7791;47.246;9.648;2024-02-23T08:15:22;5.30;99.90
15386;DHT22;7791;47.246;9.648;2024-02-23T08:17:52;5.40;99.90
15386;DHT22;7791;47.246;9.648;2024-02-23T08:20:24;5.40;99.90
15386;DHT22;7791;47.246;9.648;2024-02-23T08:25:54;5.10;99.90
15386;DHT22;7791;47.246;9.648;2024-02-23T08:28:24;5.10;99.90
15386;DHT22;7791;47.246;9.648;2024-02-23T08:33:46;5.00;99.90
15386;DHT22;7791;47.246;9.648;2024-02-23T08:36:29;5.00;99.90
15386;DHT22;7791;47.246;9.648;2024-02-23T08:38:58;5.00;99.90
15386;DHT22;7791;47.246;9.648;2024-02-23T08:41:27;5.10;99.90
15386;DHT22;7791;47.246;9.648;2024-02-23T08:44:18;5.00;99.90
15386;DHT22;7791;47.246;9.648;2024-02-23T08:46:59;5.00;99.90
15386;DHT22;7791;47.246;9.648;2024-02-23T08:49:27;5.10;99.90
15386;DHT22;7791;47.246;9.648;2024-02-23T08:52:02;5.10;99.90
15386;DHT22;7791;47.246;9.648;2024-02-23T08:54:44;5.00;99.90
15386;DHT22;7791;47.246;9.648;2024-02-23T08:57:30;5.10;99.90
15386;DHT22;7791;47.246;9.648;2024-02-23T09:00:15;5.20;99.90
15386;DHT22;7791;47.246;9.648;2024-02-23T09:02:43;5.30;99.90
15386;DHT22;7791;47.246;9.648;2024-02-23T09:05:10;5.30;99.90
15386;DHT22;7791;47.246;9.648;2024-02-23T09:07:42;5.40;99.90
15386;DHT22;7791;47.246;9.648;2024-02-23T09:10:32;5.40;99.90
15386;DHT22;7791;47.246;9.648;2024-02-23T09:13:24;5.30;99.90
15386;DHT22;7791;47.246;9.648;2024-02-23T09:16:01;5.20;99.90
15386;DHT22;7791;47.246;9.648;2024-02-23T09:18:37;5.20;99.90
15386;DHT22;7791;47.246;9.648;2024-02-23T09:21:19;5.30;99.90
15386;DHT22;7791;47.246;9.648;2024-02-23T09:23:58;5.30;99.90
15386;DHT22;7791;47.246;9.648;2024-02-23T09:26:37;5.50;99.90
15386;DHT22;7791;47.246;9.648;2024-02-23T09:29:20;5.60;99.90
15386;DHT22;7791;47.246;9.648;2024-02-23T09:32:03;5.60;99.90
15386;DHT22;7791;47.246;9.648;2024-02-23T09:34:35;5.70;99.90
15386;DHT22;7791;47.246;9.648;2024-02-23T09:37:13;5.80;99.90
15386;DHT22;7791;47.246;9.648;2024-02-23T09:39:41;5.80;99.90
15386;DHT22;7791;47.246;9.648;2024-02-23T09:42:11;5.90;99.90
15386;DHT22;7791;47.246;9.648;2024-02-23T09:45:04;6.00;99.90
15386;DHT22;7791;47.246;9.648;2024-02-23T09:47:39;6.00;99.90
15386;DHT22;7791;47.246;9.648;2024-02-23T09:50:15;6.00;99.90
15386;DHT22;7791;47.246;9.648;2024-02-23T09:55:42;6.10;99.90
15386;DHT22;7791;47.246;9.648;2024-02-23T09:58:18;6.00;99.90
15386;DHT22;7791;47.246;9.648;2024-02-23T10:00:53;6.10;99.90
15386;DHT22;7791;47.246;9.648;2024-02-23T10:03:58;6.20;99.90
15386;DHT22;7791;47.246;9.648;2024-02-23T10:06:33;6.20;99.90
15386;DHT22;7791;47.246;9.648;2024-02-23T10:11:57;6.20;99.90
15386;DHT22;7791;47.246;9.648;2024-02-23T10:17:18;6.40;99.90
15386;DHT22;7791;47.246;9.648;2024-02-23T10:20:11;6.50;99.90
15386;DHT22;7791;47.246;9.648;2024-02-23T10:22:45;6.60;99.90
15386;DHT22;7791;47.246;9.648;2024-02-23T10:25:18;6.70;99.90
15386;DHT22;7791;47.246;9.648;2024-02-23T10:27:57;6.90;99.90
15386;DHT22;7791;47.246;9.648;2024-02-23T10:30:32;6.90;99.90
15386;DHT22;7791;47.246;9.648;2024-02-23T10:33:12;6.90;99.90
15386;DHT22;7791;47.246;9.648;2024-02-23T10:35:49;7.00;99.90
15386;DHT22;7791;47.246;9.648;2024-02-23T10:38:27;6.90;99.90
15386;DHT22;7791;47.246;9.648;2024-02-23T10:44:06;6.90;99.90
15386;DHT22;7791;47.246;9.648;2024-02-23T10:46:53;6.90;99.90
15386;DHT22;7791;47.246;9.648;2024-02-23T10:49:30;6.90;99.90
15386;DHT22;7791;47.246;9.648;2024-02-23T10:52:06;7.00;99.90
15386;DHT22;7791;47.246;9.648;2024-02-23T10:54:56;7.10;99.90
15386;DHT22;7791;47.246;9.648;2024-02-23T10:57:30;7.30;99.90
15386;DHT22;7791;47.246;9.648;2024-02-23T11:00:06;7.40;99.90
15386;DHT22;7791;47.246;9.648;2024-02-23T11:05:38;7.50;99.90
15386;DHT22;7791;47.246;9.648;2024-02-23T11:08:13;7.50;99.90
15386;DHT22;7791;47.246;9.648;2024-02-23T11:10:56;7.40;99.90
15386;DHT22;7791;47.246;9.648;2024-02-23T11:13:37;7.20;99.90
15386;DHT22;7791;47.246;9.648;2024-02-23T11:16:20;7.00;99.90
15386;DHT22;7791;47.246;9.648;2024-02-23T11:19:06;7.00;99.90
15386;DHT22;7791;47.246;9.648;2024-02-23T11:21:37;6.90;99.90
15386;DHT22;7791;47.246;9.648;2024-02-23T11:24:07;7.00;99.90
15386;DHT22;7791;47.246;9.648;2024-02-23T11:26:41;7.00;99.90
15386;DHT22;7791;47.246;9.648;2024-02-23T11:29:15;7.10;99.90
15386;DHT22;7791;47.246;9.648;2024-02-23T11:31:53;7.00;99.90
15386;DHT22;7791;47.246;9.648;2024-02-23T11:34:30;6.90;99.90
15386;DHT22;7791;47.246;9.648;2024-02-23T11:37:09;6.90;99.90
15386;DHT22;7791;47.246;9.648;2024-02-23T11:39:39;7.10;99.90
15386;DHT22;7791;47.246;9.648;2024-02-23T11:42:26;7.10;99.90
15386;DHT22;7791;47.246;9.648;2024-02-23T11:45:00;7.40;99.90
15386;DHT22;7791;47.246;9.648;2024-02-23T11:47:44;7.60;99.90
15386;DHT22;7791;47.246;9.648;2024-02-23T11:50:29;7.50;99.90
15386;DHT22;7791;47.246;9.648;2024-02-23T11:53:05;7.40;99.90
15386;DHT22;7791;47.246;9.648;2024-02-23T11:55:38;7.30;99.90
15386;DHT22;7791;47.246;9.648;2024-02-23T11:58:15;7.40;99.90
15386;DHT22;7791;47.246;9.648;2024-02-23T12:00:47;6.90;99.90
15386;DHT22;7791;47.246;9.648;2024-02-23T12:03:22;7.00;99.90
15386;DHT22;7791;47.246;9.648;2024-02-23T12:06:11;6.90;99.90
15386;DHT22;7791;47.246;9.648;2024-02-23T12:08:46;6.90;99.90
15386;DHT22;7791;47.246;9.648;2024-02-23T12:11:30;7.10;99.90
15386;DHT22;7791;47.246;9.648;2024-02-23T12:16:56;7.30;99.90
15386;DHT22;7791;47.246;9.648;2024-02-23T12:19:43;7.40;99.90
15386;DHT22;7791;47.246;9.648;2024-02-23T12:22:19;7.40;99.90
15386;DHT22;7791;47.246;9.648;2024-02-23T12:24:49;7.30;99.90
15386;DHT22;7791;47.246;9.648;2024-02-23T12:27:33;7.40;99.90
15386;DHT22;7791;47.246;9.648;2024-02-23T12:30:01;7.10;99.90
15386;DHT22;7791;47.246;9.648;2024-02-23T12:32:35;7.20;99.90
15386;DHT22;7791;47.246;9.648;2024-02-23T12:35:17;7.20;99.90
15386;DHT22;7791;47.246;9.648;2024-02-23T12:37:45;7.30;99.90
15386;DHT22;7791;47.246;9.648;2024-02-23T12:40:33;7.50;99.90
15386;DHT22;7791;47.246;9.648;2024-02-23T12:43:09;7.40;99.90
15386;DHT22;7791;47.246;9.648;2024-02-23T12:45:41;7.40;99.90
15386;DHT22;7791;47.246;9.648;2024-02-23T12:48:10;7.50;99.90
15386;DHT22;7791;47.246;9.648;2024-02-23T12:50:42;7.70;99.90
15386;DHT22;7791;47.246;9.648;2024-02-23T12:53:50;8.00;99.90
15386;DHT22;7791;47.246;9.648;2024-02-23T12:56:39;8.40;99.90
15386;DHT22;7791;47.246;9.648;2024-02-23T12:59:13;8.40;99.90
15386;DHT22;7791;47.246;9.648;2024-02-23T13:02:07;8.50;99.90
15386;DHT22;7791;47.246;9.648;2024-02-23T13:04:44;8.40;99.90
15386;DHT22;7791;47.246;9.648;2024-02-23T13:10:22;8.10;99.90
15386;DHT22;7791;47.246;9.648;2024-02-23T13:12:50;8.10;99.90
15386;DHT22;7791;47.246;9.648;2024-02-23T13:15:20;8.10;99.90
15386;DHT22;7791;47.246;9.648;2024-02-23T13:17:46;7.90;99.90
15386;DHT22;7791;47.246;9.648;2024-02-23T13:20:18;7.80;99.90
15386;DHT22;7791;47.246;9.648;2024-02-23T13:22:58;7.70;99.90
15386;DHT22;7791;47.246;9.648;2024-02-23T13:25:44;7.80;99.90
15386;DHT22;7791;47.246;9.648;2024-02-23T13:28:16;7.70;99.90
15386;DHT22;7791;47.246;9.648;2024-02-23T13:31:00;7.80;99.90
15386;DHT22;7791;47.246;9.648;2024-02-23T13:33:40;7.80;99.90
15386;DHT22;7791;47.246;9.648;2024-02-23T13:36:19;7.70;99.90
15386;DHT22;7791;47.246;9.648;2024-02-23T13:38:58;7.50;99.90
15386;DHT22;7791;47.246;9.648;2024-02-23T13:41:43;7.40;99.90
15386;DHT22;7791;47.246;9.648;2024-02-23T13:44:23;7.30;99.90
15386;DHT22;7791;47.246;9.648;2024-02-23T13:46:51;7.30;99.90
15386;DHT22;7791;47.246;9.648;2024-02-23T13:49:24;7.40;99.90
15386;DHT22;7791;47.246;9.648;2024-02-23T13:52:01;7.50;99.90
15386;DHT22;7791;47.246;9.648;2024-02-23T13:54:43;7.50;99.90
15386;DHT22;7791;47.246;9.648;2024-02-23T13:57:37;7.30;99.90
15386;DHT22;7791;47.246;9.648;2024-02-23T14:00:08;7.20;99.90
15386;DHT22;7791;47.246;9.648;2024-02-23T14:02:47;7.10;99.90
15386;DHT22;7791;47.246;9.648;2024-02-23T14:05:17;6.90;99.90
15386;DHT22;7791;47.246;9.648;2024-02-23T14:08:05;6.90;99.90
15386;DHT22;7791;47.246;9.648;2024-02-23T14:10:36;6.80;99.90
15386;DHT22;7791;47.246;9.648;2024-02-23T14:13:19;7.00;99.90
15386;DHT22;7791;47.246;9.648;2024-02-23T14:15:54;7.10;99.90
15386;DHT22;7791;47.246;9.648;2024-02-23T14:18:23;7.00;99.90
15386;DHT22;7791;47.246;9.648;2024-02-23T14:20:59;7.00;99.90
15386;DHT22;7791;47.246;9.648;2024-02-23T14:23:42;7.10;99.90
15386;DHT22;7791;47.246;9.648;2024-02-23T14:26:13;7.20;99.90
15386;DHT22;7791;47.246;9.648;2024-02-23T14:29:14;7.20;99.90
15386;DHT22;7791;47.246;9.648;2024-02-23T14:32:04;7.10;99.90
15386;DHT22;7791;47.246;9.648;2024-02-23T14:34:41;7.20;99.90
15386;DHT22;7791;47.246;9.648;2024-02-23T14:37:12;7.10;99.90
15386;DHT22;7791;47.246;9.648;2024-02-23T14:39:57;7.00;99.90
15386;DHT22;7791;47.246;9.648;2024-02-23T14:42:47;6.90;99.90
15386;DHT22;7791;47.246;9.648;2024-02-23T14:45:35;6.90;99.90
15386;DHT22;7791;47.246;9.648;2024-02-23T14:48:08;6.90;99.90
15386;DHT22;7791;47.246;9.648;2024-02-23T14:50:55;6.90;99.90
15386;DHT22;7791;47.246;9.648;2024-02-23T14:53:33;7.00;99.90
15386;DHT22;7791;47.246;9.648;2024-02-23T14:56:24;7.20;99.90
15386;DHT22;7791;47.246;9.648;2024-02-23T14:58:54;7.30;99.90
15386;DHT22;7791;47.246;9.648;2024-02-23T15:01:27;7.40;99.90
15386;DHT22;7791;47.246;9.648;2024-02-23T15:04:15;7.40;99.90
15386;DHT22;7791;47.246;9.648;2024-02-23T15:07:06;7.30;99.90
15386;DHT22;7791;47.246;9.648;2024-02-23T15:09:46;7.40;99.90
15386;DHT22;7791;47.246;9.648;2024-02-23T15:12:15;7.40;99.90
15386;DHT22;7791;47.246;9.648;2024-02-23T15:14:50;7.30;99.90
15386;DHT22;7791;47.246;9.648;2024-02-23T15:17:28;7.00;99.90
15386;DHT22;7791;47.246;9.648;2024-02-23T15:20:03;7.00;99.90
15386;DHT22;7791;47.246;9.648;2024-02-23T15:22:51;6.80;99.90
15386;DHT22;7791;47.246;9.648;2024-02-23T15:25:33;6.80;99.90
15386;DHT22;7791;47.246;9.648;2024-02-23T15:28:12;6.60;99.90
15386;DHT22;7791;47.246;9.648;2024-02-23T15:30:58;6.70;99.90
15386;DHT22;7791;47.246;9.648;2024-02-23T15:33:43;6.70;99.90
15386;DHT22;7791;47.246;9.648;2024-02-23T15:39:29;6.80;99.90
15386;DHT22;7791;47.246;9.648;2024-02-23T15:42:06;6.90;99.90
15386;DHT22;7791;47.246;9.648;2024-02-23T15:44:33;7.00;99.90
15386;DHT22;7791;47.246;9.648;2024-02-23T15:47:10;7.00;99.90
15386;DHT22;7791;47.246;9.648;2024-02-23T15:50:04;7.00;99.90
15386;DHT22;7791;47.246;9.648;2024-02-23T15:52:43;7.00;99.90
15386;DHT22;7791;47.246;9.648;2024-02-23T15:55:24;6.90;99.90
15386;DHT22;7791;47.246;9.648;2024-02-23T15:58:01;6.90;99.90
15386;DHT22;7791;47.246;9.648;2024-02-23T16:00:44;6.80;99.90
15386;DHT22;7791;47.246;9.648;2024-02-23T16:03:11;6.70;99.90
15386;DHT22;7791;47.246;9.648;2024-02-23T16:05:58;6.70;99.90
15386;DHT22;7791;47.246;9.648;2024-02-23T16:11:26;6.40;99.90
15386;DHT22;7791;47.246;9.648;2024-02-23T16:13:54;6.30;99.90
15386;DHT22;7791;47.246;9.648;2024-02-23T16:16:39;6.20;99.90
15386;DHT22;7791;47.246;9.648;2024-02-23T16:19:10;6.30;99.90
15386;DHT22;7791;47.246;9.648;2024-02-23T16:24:39;6.30;99.90
15386;DHT22;7791;47.246;9.648;2024-02-23T16:27:10;6.30;99.90
15386;DHT22;7791;47.246;9.648;2024-02-23T16:29:52;6.30;99.90
15386;DHT22;7791;47.246;9.648;2024-02-23T16:35:16;6.20;99.90
15386;DHT22;7791;47.246;9.648;2024-02-23T16:38:10;6.10;99.90
15386;DHT22;7791;47.246;9.648;2024-02-23T16:40:41;6.00;99.90
15386;DHT22;7791;47.246;9.648;2024-02-23T16:43:11;6.00;99.90
15386;DHT22;7791;47.246;9.648;2024-02-23T16:45:48;6.10;99.90
15386;DHT22;7791;47.246;9.648;2024-02-23T16:48:29;6.20;99.90
15386;DHT22;7791;47.246;9.648;2024-02-23T16:51:17;6.10;99.90
15386;DHT22;7791;47.246;9.648;2024-02-23T16:53:56;6.00;99.90
15386;DHT22;7791;47.246;9.648;2024-02-23T16:56:45;5.90;99.90
15386;DHT22;7791;47.246;9.648;2024-02-23T16:59:18;5.90;99.90
15386;DHT22;7791;47.246;9.648;2024-02-23T17:02:08;5.80;99.90
15386;DHT22;7791;47.246;9.648;2024-02-23T17:04:42;5.70;99.90
15386;DHT22;7791;47.246;9.648;2024-02-23T17:10:07;5.50;99.90
15386;DHT22;7791;47.246;9.648;2024-02-23T17:12:42;5.50;99.90
15386;DHT22;7791;47.246;9.648;2024-02-23T17:15:29;5.50;99.90
15386;DHT22;7791;47.246;9.648;2024-02-23T17:18:05;5.50;99.90
15386;DHT22;7791;47.246;9.648;2024-02-23T17:20:55;5.50;99.90
15386;DHT22;7791;47.246;9.648;2024-02-23T17:23:40;5.40;99.90
15386;DHT22;7791;47.246;9.648;2024-02-23T17:26:26;5.30;99.90
15386;DHT22;7791;47.246;9.648;2024-02-23T17:28:54;5.30;99.90
15386;DHT22;7791;47.246;9.648;2024-02-23T17:31:37;5.20;99.90
15386;DHT22;7791;47.246;9.648;2024-02-23T17:36:55;5.00;99.90
15386;DHT22;7791;47.246;9.648;2024-02-23T17:39:33;4.90;99.90
15386;DHT22;7791;47.246;9.648;2024-02-23T17:42:14;4.80;99.90
15386;DHT22;7791;47.246;9.648;2024-02-23T17:44:46;4.70;99.90
15386;DHT22;7791;47.246;9.648;2024-02-23T17:47:27;4.60;99.90
15386;DHT22;7791;47.246;9.648;2024-02-23T17:49:59;4.50;99.90
15386;DHT22;7791;47.246;9.648;2024-02-23T17:52:36;4.50;99.90
15386;DHT22;7791;47.246;9.648;2024-02-23T17:55:04;4.50;99.90
15386;DHT22;7791;47.246;9.648;2024-02-23T17:57:33;4.50;99.90
15386;DHT22;7791;47.246;9.648;2024-02-23T18:00:24;4.50;99.90
15386;DHT22;7791;47.246;9.648;2024-02-23T18:02:54;4.50;99.90
15386;DHT22;7791;47.246;9.648;2024-02-23T18:05:51;4.50;99.90
15386;DHT22;7791;47.246;9.648;2024-02-23T18:08:24;4.50;99.90